Time;durP1;ratioP1;P1;durP2;ratioP2;P2;SDS_P1;SDS_P2;PMS_P1;PMS_P2;Temp;Humidity;BMP_temperature;BMP_pressure;BME280_temperature;BME280_humidity;BME280_pressure;Samples;Min_cycle;Max_cycle;Signal;HPM_P1;HPM_P2
2024/01/30 00:00:15;;;;;;;8.67;6.57;;;;;;;3.69;100.00;99424.09;5130979;27;20704;-72
2024/01/30 00:02:43;;;;;;;7.90;6.00;;;;;;;3.66;100.00;99420.94;5130919;28;20226;-72
2024/01/30 00:05:09;;;;;;;9.40;6.37;;;;;;;3.60;100.00;99418.84;5130887;28;20750;-72
2024/01/30 00:07:35;;;;;;;11.50;6.87;;;;;;;3.58;100.00;99412.94;5131257;28;20203;-72
2024/01/30 00:10:02;;;;;;;13.10;6.83;;;;;;;3.56;100.00;99417.47;5131176;28;20205;-72
2024/01/30 00:12:28;;;;;;;11.40;6.73;;;;;;;3.59;100.00;99418.03;5131087;28;20313;-72
2024/01/30 00:14:55;;;;;;;11.20;7.37;;;;;;;3.58;100.00;99420.81;5131153;27;20271;-72
2024/01/30 00:17:21;;;;;;;10.63;7.10;;;;;;;3.57;100.00;99417.34;5131038;28;20203;-74
2024/01/30 00:19:48;;;;;;;10.37;6.60;;;;;;;3.54;100.00;99415.00;5130695;28;20681;-74
2024/01/30 00:22:14;;;;;;;10.80;7.10;;;;;;;3.51;100.00;99415.28;5130517;28;20596;-74
2024/01/30 00:24:40;;;;;;;10.97;6.90;;;;;;;3.44;100.00;99423.88;5130500;28;20228;-74
2024/01/30 00:27:07;;;;;;;9.43;6.50;;;;;;;3.41;100.00;99416.28;5130733;28;20199;-74
2024/01/30 00:29:33;;;;;;;10.60;7.47;;;;;;;3.44;100.00;99421.25;5130391;28;20687;-74
2024/01/30 00:32:00;;;;;;;8.53;6.73;;;;;;;3.52;100.00;99413.50;5130684;28;20211;-74
2024/01/30 00:34:26;;;;;;;8.53;7.00;;;;;;;3.43;100.00;99414.34;5130368;27;20199;-74
2024/01/30 00:36:53;;;;;;;11.37;6.87;;;;;;;3.41;100.00;99413.63;5119752;28;20550;-74
2024/01/30 00:39:20;;;;;;;12.83;7.13;;;;;;;3.41;100.00;99419.75;5117481;28;20306;-74
2024/01/30 00:41:46;;;;;;;9.37;6.80;;;;;;;3.37;100.00;99422.78;5116892;28;20207;-74
2024/01/30 00:44:13;;;;;;;8.87;6.53;;;;;;;3.38;100.00;99414.75;5116710;28;20310;-74
2024/01/30 00:46:39;;;;;;;9.27;7.30;;;;;;;3.38;100.00;99420.00;5116485;28;20203;-74
2024/01/30 00:49:05;;;;;;;9.57;7.70;;;;;;;3.31;100.00;99413.69;5116472;28;20211;-74
2024/01/30 00:51:32;;;;;;;10.60;7.60;;;;;;;3.32;100.00;99420.59;5116452;28;20684;-74
2024/01/30 00:53:58;;;;;;;9.40;7.20;;;;;;;3.24;100.00;99414.34;5116576;28;20259;-74
2024/01/30 00:56:25;;;;;;;10.43;7.13;;;;;;;3.27;100.00;99421.97;5116491;28;20211;-74
2024/01/30 00:58:51;;;;;;;8.67;7.07;;;;;;;3.28;100.00;99423.63;5116530;28;20242;-74
2024/01/30 01:01:17;;;;;;;11.80;7.20;;;;;;;3.30;100.00;99417.25;5116217;28;20566;-74
2024/01/30 01:03:44;;;;;;;11.40;7.03;;;;;;;3.29;100.00;99425.31;5116402;28;20223;-74
2024/01/30 01:06:11;;;;;;;10.83;7.07;;;;;;;3.39;100.00;99421.66;5116354;28;20226;-74
2024/01/30 01:08:37;;;;;;;9.83;7.90;;;;;;;3.39;100.00;99428.75;5116370;28;20201;-74
2024/01/30 01:11:04;;;;;;;10.77;7.73;;;;;;;3.38;100.00;99419.16;5116204;28;20203;-74
2024/01/30 01:13:30;;;;;;;10.37;7.03;;;;;;;3.43;100.00;99417.78;5116307;28;20227;-74
2024/01/30 01:15:56;;;;;;;8.80;7.10;;;;;;;3.45;100.00;99425.53;5116166;28;20214;-72
2024/01/30 01:18:23;;;;;;;8.53;6.70;;;;;;;3.35;100.00;99422.91;5116168;28;20204;-73
2024/01/30 01:20:50;;;;;;;12.77;7.20;;;;;;;3.36;100.00;99423.75;5116124;28;20203;-74
2024/01/30 01:23:16;;;;;;;9.47;6.73;;;;;;;3.35;100.00;99422.09;5116023;28;20227;-74
2024/01/30 01:25:42;;;;;;;11.03;6.67;;;;;;;3.39;100.00;99436.63;5115782;28;20227;-74
2024/01/30 01:28:09;;;;;;;8.87;6.77;;;;;;;3.38;100.00;99427.06;5115959;28;20203;-74
2024/01/30 01:30:35;;;;;;;8.43;6.27;;;;;;;3.34;100.00;99417.81;5115930;28;20206;-74
2024/01/30 01:33:02;;;;;;;9.57;6.57;;;;;;;3.31;100.00;99412.84;5115777;28;20227;-74
2024/01/30 01:35:28;;;;;;;9.80;6.50;;;;;;;3.23;100.00;99416.16;5115781;28;20244;-74
2024/01/30 01:37:55;;;;;;;9.27;6.70;;;;;;;3.19;100.00;99424.44;5115828;28;20207;-74
2024/01/30 01:40:25;;;;;;;8.40;5.97;;;;;;;3.16;100.00;99419.50;5115753;28;20240;-74
2024/01/30 01:42:52;;;;;;;8.63;6.47;;;;;;;3.15;100.00;99415.19;5115613;28;20230;-74
2024/01/30 01:45:20;;;;;;;11.63;6.77;;;;;;;3.14;100.00;99416.16;5115585;28;20223;-74
2024/01/30 01:47:49;;;;;;;8.27;6.53;;;;;;;3.18;100.00;99414.91;5114667;28;20203;-74
2024/01/30 01:50:18;;;;;;;8.93;6.30;;;;;;;3.18;100.00;99414.91;5115241;28;20662;-74
2024/01/30 01:52:45;;;;;;;12.60;7.40;;;;;;;3.12;100.00;99420.75;5115433;28;20227;-74
2024/01/30 01:55:13;;;;;;;11.33;7.43;;;;;;;3.08;100.00;99414.09;5115491;28;20199;-74
2024/01/30 01:57:40;;;;;;;10.50;7.00;;;;;;;3.12;100.00;99418.13;5115048;28;20210;-74
2024/01/30 02:00:07;;;;;;;8.70;6.50;;;;;;;3.10;100.00;99413.00;5115331;28;20200;-74
2024/01/30 02:02:36;;;;;;;11.10;6.57;;;;;;;3.10;100.00;99420.03;5115345;28;20593;-74
2024/01/30 02:05:03;;;;;;;9.87;7.13;;;;;;;3.11;100.00;99411.22;5114895;28;20714;-74
2024/01/30 02:07:30;;;;;;;9.87;6.27;;;;;;;3.05;100.00;99409.97;5114847;28;20662;-74
2024/01/30 02:09:57;;;;;;;10.23;6.63;;;;;;;3.00;100.00;99413.97;5115154;28;20207;-74
2024/01/30 02:12:23;;;;;;;10.57;6.57;;;;;;;2.89;100.00;99414.09;5115064;28;20237;-74
2024/01/30 02:14:51;;;;;;;9.47;6.93;;;;;;;2.98;100.00;99421.16;5115089;28;20201;-74
2024/01/30 02:17:17;;;;;;;8.00;6.60;;;;;;;2.97;100.00;99419.47;5114946;28;20207;-74
2024/01/30 02:19:44;;;;;;;10.43;6.53;;;;;;;2.91;100.00;99417.41;5114988;28;20207;-74
2024/01/30 02:22:10;;;;;;;8.07;6.50;;;;;;;2.92;100.00;99416.44;5114502;28;20735;-74
2024/01/30 02:24:37;;;;;;;9.83;6.73;;;;;;;2.97;100.00;99422.09;5114511;28;20609;-74
2024/01/30 02:27:03;;;;;;;9.00;6.93;;;;;;;2.96;100.00;99413.41;5114832;28;20199;-72
2024/01/30 02:29:30;;;;;;;11.20;6.67;;;;;;;2.91;100.00;99422.66;5114458;28;20204;-72
2024/01/30 02:31:56;;;;;;;11.03;6.83;;;;;;;2.87;100.00;99431.78;5114700;28;20209;-72
2024/01/30 02:34:22;;;;;;;7.77;6.70;;;;;;;2.86;100.00;99422.25;5114418;28;20199;-72
2024/01/30 02:36:49;;;;;;;7.93;6.40;;;;;;;2.83;100.00;99422.50;5114378;28;20702;-72
2024/01/30 02:39:15;;;;;;;10.17;6.70;;;;;;;2.82;100.00;99423.50;5114323;28;20658;-72
2024/01/30 02:41:41;;;;;;;10.30;6.93;;;;;;;2.87;100.00;99416.88;5114286;28;20683;-72
2024/01/30 02:44:08;;;;;;;9.40;6.40;;;;;;;2.85;100.00;99415.34;5114214;28;20736;-72
2024/01/30 02:46:34;;;;;;;9.53;6.50;;;;;;;2.83;100.00;99417.25;5114484;28;20249;-72
2024/01/30 02:49:00;;;;;;;8.43;6.60;;;;;;;2.83;100.00;99414.63;5114381;28;20203;-72
2024/01/30 02:51:27;;;;;;;7.33;6.57;;;;;;;2.80;100.00;99409.69;5114010;28;20259;-72
2024/01/30 02:53:53;;;;;;;11.57;7.10;;;;;;;2.77;100.00;99409.94;5114152;28;20225;-72
2024/01/30 02:56:19;;;;;;;10.43;6.67;;;;;;;2.75;100.00;99417.16;5114260;28;20199;-72
2024/01/30 02:58:46;;;;;;;10.17;6.83;;;;;;;2.77;100.00;99412.56;5113661;28;20199;-72
2024/01/30 03:01:12;;;;;;;9.80;6.67;;;;;;;2.75;100.00;99411.88;5114127;28;20208;-72
2024/01/30 03:03:40;;;;;;;7.93;7.13;;;;;;;2.68;100.00;99413.38;5114045;28;20227;-72
2024/01/30 03:06:07;;;;;;;12.20;6.90;;;;;;;2.68;100.00;99413.38;5114071;28;20315;-72
2024/01/30 03:08:34;;;;;;;9.30;7.30;;;;;;;2.65;100.00;99416.28;5114182;28;20205;-72
2024/01/30 03:11:01;;;;;;;9.67;6.73;;;;;;;2.64;100.00;99409.38;5114134;28;20206;-72
2024/01/30 03:13:27;;;;;;;9.07;7.00;;;;;;;2.62;100.00;99417.38;5114031;28;20261;-74
2024/01/30 03:15:54;;;;;;;10.70;6.57;;;;;;;2.56;100.00;99404.81;5114181;28;20199;-74
2024/01/30 03:18:20;;;;;;;8.33;6.70;;;;;;;2.56;100.00;99407.44;5114070;28;20209;-74
2024/01/30 03:20:46;;;;;;;9.30;7.17;;;;;;;2.58;100.00;99412.56;5114106;28;20209;-74
2024/01/30 03:23:13;;;;;;;9.10;6.57;;;;;;;2.52;100.00;99410.47;5113907;28;20227;-74
2024/01/30 03:25:39;;;;;;;9.10;6.77;;;;;;;2.48;100.00;99412.53;5113400;28;20227;-74
2024/01/30 03:28:06;;;;;;;9.70;6.53;;;;;;;2.48;100.00;99411.72;5113776;28;20207;-74
2024/01/30 03:30:32;;;;;;;8.90;6.57;;;;;;;2.47;100.00;99413.50;5113872;28;20199;-74
2024/01/30 03:32:58;;;;;;;10.57;7.00;;;;;;;2.47;100.00;99412.66;5113726;28;20219;-72
2024/01/30 03:35:25;;;;;;;9.13;6.60;;;;;;;2.48;100.00;99412.53;5113671;28;20205;-72
2024/01/30 03:37:52;;;;;;;11.17;6.93;;;;;;;2.42;100.00;99422.72;5113361;28;20613;-72
2024/01/30 03:40:18;;;;;;;10.30;6.60;;;;;;;2.38;100.00;99418.72;5113428;28;20260;-72
2024/01/30 03:42:45;;;;;;;8.23;6.43;;;;;;;2.36;100.00;99413.63;5113468;28;20253;-72
2024/01/30 03:45:11;;;;;;;7.97;6.43;;;;;;;2.43;100.00;99413.91;5113725;28;20219;-72
2024/01/30 03:47:38;;;;;;;8.47;6.33;;;;;;;2.42;100.00;99414.84;5113637;28;20238;-72
2024/01/30 03:50:05;;;;;;;8.00;6.40;;;;;;;2.37;100.00;99419.69;5113520;28;20207;-72
2024/01/30 03:52:31;;;;;;;8.20;6.57;;;;;;;2.46;100.00;99416.25;5113427;28;20730;-72
2024/01/30 03:54:57;;;;;;;10.90;6.80;;;;;;;2.50;100.00;99413.22;5113727;28;20204;-72
2024/01/30 03:57:24;;;;;;;7.97;6.60;;;;;;;2.46;100.00;99421.50;5113694;28;20203;-72
2024/01/30 03:59:50;;;;;;;12.07;6.83;;;;;;;2.44;100.00;99423.44;5113669;28;20200;-72
2024/01/30 04:02:17;;;;;;;9.13;7.00;;;;;;;2.39;100.00;99420.41;5113503;28;20231;-72
2024/01/30 04:04:44;;;;;;;9.80;6.47;;;;;;;2.45;100.00;99422.47;5113263;28;20696;-72
2024/01/30 04:07:10;;;;;;;8.63;6.93;;;;;;;2.44;100.00;99418.19;5113433;28;20227;-74
2024/01/30 04:09:36;;;;;;;8.23;6.63;;;;;;;2.39;100.00;99418.59;5113341;28;20206;-74
2024/01/30 04:12:03;;;;;;;7.27;6.57;;;;;;;2.29;100.00;99419.50;5115768;28;20247;-74
2024/01/30 04:14:30;;;;;;;10.57;6.60;;;;;;;2.34;100.00;99423.41;5117352;28;20199;-72
2024/01/30 04:16:56;;;;;;;10.70;7.53;;;;;;;2.38;100.00;99416.09;5117183;28;20206;-72
2024/01/30 04:19:22;;;;;;;8.70;6.80;;;;;;;2.50;100.00;99417.66;5116751;28;20207;-72
2024/01/30 04:21:49;;;;;;;8.30;6.43;;;;;;;2.50;100.00;99421.13;5117073;28;20207;-72
2024/01/30 04:24:17;;;;;;;8.17;6.77;;;;;;;2.51;100.00;99417.50;5116816;28;20699;-72
2024/01/30 04:26:43;;;;;;;7.67;6.67;;;;;;;2.51;100.00;99408.78;5116722;28;20758;-72
2024/01/30 04:29:09;;;;;;;8.10;6.60;;;;;;;2.47;100.00;99407.41;5116813;28;20207;-72
2024/01/30 04:31:37;;;;;;;8.93;6.90;;;;;;;2.44;100.00;99413.75;5116902;28;20207;-72
2024/01/30 04:34:03;;;;;;;8.93;6.83;;;;;;;2.45;100.00;99414.59;5116592;28;20233;-72
2024/01/30 04:36:30;;;;;;;9.20;7.03;;;;;;;2.44;100.00;99408.50;5116566;28;20199;-72
2024/01/30 04:38:56;;;;;;;10.30;7.00;;;;;;;2.42;100.00;99409.59;5116618;28;20207;-72
2024/01/30 04:41:22;;;;;;;9.57;7.20;;;;;;;2.42;100.00;99409.59;5116535;28;20199;-73
2024/01/30 04:43:49;;;;;;;10.27;7.10;;;;;;;2.39;100.00;99410.72;5116542;28;20223;-72
2024/01/30 04:46:15;;;;;;;11.83;7.43;;;;;;;2.37;100.00;99410.03;5116388;28;20223;-72
2024/01/30 04:48:41;;;;;;;9.63;7.33;;;;;;;2.55;100.00;99412.81;5116536;28;20199;-72
2024/01/30 04:51:08;;;;;;;9.17;6.97;;;;;;;2.58;100.00;99412.56;5116490;28;20208;-72
2024/01/30 04:53:34;;;;;;;9.97;7.40;;;;;;;2.49;100.00;99416.00;5116404;28;20229;-72
2024/01/30 04:56:00;;;;;;;9.83;7.00;;;;;;;2.45;100.00;99412.81;5116398;28;20195;-72
2024/01/30 04:58:27;;;;;;;8.77;6.80;;;;;;;2.42;100.00;99415.69;5116334;28;20214;-72
2024/01/30 05:00:53;;;;;;;8.67;7.07;;;;;;;2.43;100.00;99419.16;5115931;28;20206;-72
2024/01/30 05:03:22;;;;;;;9.87;7.20;;;;;;;2.42;100.00;99414.84;5115424;28;20223;-74
2024/01/30 05:05:49;;;;;;;9.27;7.90;;;;;;;2.43;100.00;99419.16;5115764;27;20585;-74
2024/01/30 05:08:15;;;;;;;8.83;7.07;;;;;;;2.40;100.00;99422.84;5115903;28;20286;-74
2024/01/30 05:10:41;;;;;;;9.97;6.97;;;;;;;2.33;100.00;99418.28;5116257;28;20229;-74
2024/01/30 05:13:08;;;;;;;10.53;7.50;;;;;;;2.38;100.00;99423.97;5115919;28;20229;-74
2024/01/30 05:15:34;;;;;;;10.73;7.80;;;;;;;2.35;100.00;99421.63;5115876;28;20199;-74
2024/01/30 05:18:00;;;;;;;10.90;7.70;;;;;;;2.31;100.00;99423.66;5115746;28;20210;-74
2024/01/30 05:20:27;;;;;;;11.33;7.43;;;;;;;2.27;100.00;99424.94;5115488;28;20213;-74
2024/01/30 05:22:54;;;;;;;10.97;7.70;;;;;;;2.28;100.00;99418.69;5115387;28;20647;-74
2024/01/30 05:25:20;;;;;;;11.87;7.60;;;;;;;2.32;100.00;99422.72;5115263;28;20586;-74
2024/01/30 05:27:47;;;;;;;10.73;7.20;;;;;;;2.28;100.00;99425.72;5115761;28;20199;-74
2024/01/30 05:30:14;;;;;;;14.17;7.20;;;;;;;2.31;100.00;99418.41;5115292;28;20209;-72
2024/01/30 05:32:40;;;;;;;12.53;7.73;;;;;;;2.31;100.00;99428.09;5115536;28;20249;-72
2024/01/30 05:35:07;;;;;;;11.43;7.10;;;;;;;2.34;100.00;99428.66;5115533;28;20199;-72
2024/01/30 05:37:34;;;;;;;8.90;6.90;;;;;;;2.22;100.00;99421.03;5115418;28;20203;-72
2024/01/30 05:40:00;;;;;;;10.27;7.50;;;;;;;2.24;100.00;99433.06;5115464;28;20261;-74
2024/01/30 05:42:27;;;;;;;10.77;7.03;;;;;;;2.26;100.00;99435.53;5115313;28;20227;-74
2024/01/30 05:44:54;;;;;;;11.13;7.27;;;;;;;2.25;100.00;99434.72;5115240;27;20199;-74
2024/01/30 05:47:20;;;;;;;9.37;7.00;;;;;;;2.31;100.00;99439.41;5115194;28;20227;-74
2024/01/30 05:49:46;;;;;;;8.87;6.70;;;;;;;2.34;100.00;99435.72;5114744;28;20562;-74
2024/01/30 05:52:13;;;;;;;10.40;6.87;;;;;;;2.39;100.00;99433.50;5114524;28;20593;-72
2024/01/30 05:54:39;;;;;;;10.17;6.30;;;;;;;2.33;100.00;99441.91;5114449;28;20218;-75
2024/01/30 05:57:06;;;;;;;9.53;6.43;;;;;;;2.34;100.00;99444.41;5114838;28;20211;-74
2024/01/30 05:59:33;;;;;;;11.03;6.53;;;;;;;2.38;100.00;99439.69;5115612;28;20203;-74
2024/01/30 06:01:59;;;;;;;8.27;6.07;;;;;;;2.39;100.00;99442.19;5114870;28;20203;-75
2024/01/30 06:04:25;;;;;;;9.03;6.13;;;;;;;2.40;100.00;99441.22;5115258;28;20199;-75
2024/01/30 06:06:52;;;;;;;9.10;6.43;;;;;;;2.31;100.00;99436.78;5114191;28;20690;-72
2024/01/30 06:09:18;;;;;;;8.17;6.20;;;;;;;2.37;100.00;99443.31;5114605;28;20671;-73
2024/01/30 06:11:44;;;;;;;9.70;6.63;;;;;;;2.38;100.00;99440.53;5114848;28;20203;-74
2024/01/30 06:14:11;;;;;;;8.50;6.33;;;;;;;2.41;100.00;99435.03;5114452;28;20325;-74
2024/01/30 06:16:37;;;;;;;8.10;6.67;;;;;;;2.36;100.00;99439.88;5114734;28;20199;-74
2024/01/30 06:19:03;;;;;;;9.93;7.27;;;;;;;2.37;100.00;99438.06;5114355;28;20199;-74
2024/01/30 06:21:30;;;;;;;8.20;6.23;;;;;;;2.34;100.00;99431.28;5114324;28;20217;-74
2024/01/30 06:23:56;;;;;;;10.77;7.37;;;;;;;2.31;100.00;99435.97;5114037;28;20241;-74
2024/01/30 06:26:23;;;;;;;9.80;6.90;;;;;;;2.28;100.00;99433.59;5114276;28;20210;-74
2024/01/30 06:28:49;;;;;;;8.50;7.10;;;;;;;2.28;100.00;99442.31;5114310;28;20218;-74
2024/01/30 06:31:16;;;;;;;8.90;7.20;;;;;;;2.28;100.00;99438.84;5114144;28;20209;-74
2024/01/30 06:33:42;;;;;;;10.53;7.30;;;;;;;2.26;100.00;99440.78;5113696;28;20219;-74
2024/01/30 06:36:09;;;;;;;9.07;6.60;;;;;;;2.27;100.00;99445.91;5113986;28;20678;-74
2024/01/30 06:38:35;;;;;;;8.77;6.67;;;;;;;2.28;100.00;99434.44;5114120;28;20210;-73
2024/01/30 06:41:01;;;;;;;9.00;6.60;;;;;;;2.26;100.00;99440.78;5114117;28;20199;-73
2024/01/30 06:43:28;;;;;;;10.60;7.47;;;;;;;2.26;100.00;99446.03;5113882;28;20318;-72
2024/01/30 06:45:54;;;;;;;8.90;6.93;;;;;;;2.30;100.00;99444.81;5113379;28;20693;-72
2024/01/30 06:48:21;;;;;;;9.43;7.50;;;;;;;2.26;100.00;99441.59;5113737;28;20207;-73
2024/01/30 06:50:49;;;;;;;11.53;7.57;;;;;;;2.29;100.00;99437.88;5114075;28;20199;-72
2024/01/30 06:53:15;;;;;;;9.37;7.27;;;;;;;2.27;100.00;99445.91;5113696;28;20223;-72
2024/01/30 06:55:42;;;;;;;10.13;7.87;;;;;;;2.29;100.00;99436.09;5113424;28;20218;-72
2024/01/30 06:58:08;;;;;;;11.87;7.73;;;;;;;2.31;100.00;99444.66;5113664;28;20203;-72
2024/01/30 07:00:34;;;;;;;12.47;7.27;;;;;;;2.29;100.00;99445.75;5113767;28;20207;-72
2024/01/30 07:03:01;;;;;;;9.87;7.27;;;;;;;2.31;100.00;99451.72;5113609;28;20226;-72
2024/01/30 07:05:27;;;;;;;12.27;7.83;;;;;;;2.28;100.00;99452.81;5113470;28;20199;-72
2024/01/30 07:07:53;;;;;;;11.43;7.50;;;;;;;2.32;100.00;99453.38;5113700;28;20230;-72
2024/01/30 07:10:20;;;;;;;10.33;7.80;;;;;;;2.36;100.00;99453.00;5112925;28;20209;-73
2024/01/30 07:12:46;;;;;;;11.73;7.87;;;;;;;2.38;100.00;99460.69;5112930;28;20226;-72
2024/01/30 07:15:16;;;;;;;11.10;7.77;;;;;;;2.40;100.00;99464.03;5113147;28;20202;-74
2024/01/30 07:17:42;;;;;;;15.10;7.60;;;;;;;2.39;100.00;99459.75;5113595;28;20229;-72
2024/01/30 07:20:09;;;;;;;11.30;7.90;;;;;;;2.44;100.00;99461.00;5113360;28;20203;-72
2024/01/30 07:22:35;;;;;;;11.13;7.43;;;;;;;2.46;100.00;99463.50;5112969;28;20309;-72
2024/01/30 07:25:02;;;;;;;11.83;7.40;;;;;;;2.48;100.00;99466.84;5113474;28;20222;-72
2024/01/30 07:27:28;;;;;;;12.33;7.77;;;;;;;2.49;100.00;99458.00;5113106;28;20234;-72
2024/01/30 07:29:55;;;;;;;10.60;7.73;;;;;;;2.54;100.00;99456.63;5113045;28;20199;-72
2024/01/30 07:32:21;;;;;;;10.77;7.67;;;;;;;2.61;100.00;99459.50;5112877;28;20238;-72
2024/01/30 07:34:47;;;;;;;10.37;6.93;;;;;;;2.60;100.00;99460.50;5113229;28;20544;-74
2024/01/30 07:37:15;;;;;;;11.40;7.80;;;;;;;2.67;100.00;99462.44;5113005;28;20558;-74
2024/01/30 07:39:42;;;;;;;9.93;6.60;;;;;;;2.72;100.00;99464.66;5113336;28;20294;-72
2024/01/30 07:42:08;;;;;;;11.77;7.50;;;;;;;2.72;100.00;99459.41;5113142;28;20218;-72
2024/01/30 07:44:35;;;;;;;10.67;7.63;;;;;;;2.77;100.00;99459.84;5112740;28;20203;-72
2024/01/30 07:47:02;;;;;;;9.93;7.60;;;;;;;2.76;100.00;99466.06;5115171;28;20760;-72
2024/01/30 07:49:29;;;;;;;11.73;7.00;;;;;;;2.85;100.00;99462.63;5117624;28;20210;-73
2024/01/30 07:51:55;;;;;;;9.40;6.53;;;;;;;2.87;100.00;99468.56;5117101;28;20228;-72
2024/01/30 07:54:21;;;;;;;10.03;7.47;;;;;;;2.87;100.00;99468.56;5117211;28;20218;-72
2024/01/30 07:56:48;;;;;;;11.07;7.27;;;;;;;2.92;100.00;99469.81;5117045;28;20277;-72
2024/01/30 07:59:14;;;;;;;8.67;7.07;;;;;;;3.01;100.00;99466.38;5116472;28;20665;-72
2024/01/30 08:01:40;;;;;;;12.20;7.40;;;;;;;3.04;100.00;99471.34;5117013;28;20290;-72
2024/01/30 08:04:07;;;;;;;7.93;6.43;;;;;;;3.08;100.00;99477.16;5116917;28;20233;-72
2024/01/30 08:06:34;;;;;;;8.63;7.23;;;;;;;3.13;100.00;99482.81;5117047;28;20223;-72
2024/01/30 08:09:00;;;;;;;10.63;7.67;;;;;;;3.18;100.00;99477.97;5117266;28;20555;-73
2024/01/30 08:11:28;;;;;;;8.20;7.07;;;;;;;3.28;100.00;99468.28;5117124;28;20203;-72
2024/01/30 08:13:55;;;;;;;9.77;6.80;;;;;;;3.42;100.00;99468.72;5116956;27;20223;-72
2024/01/30 08:16:21;;;;;;;10.87;7.10;;;;;;;3.43;100.00;99466.94;5116670;28;20558;-72
2024/01/30 08:18:47;;;;;;;8.93;7.20;;;;;;;3.50;100.00;99474.09;5117052;28;20203;-72
2024/01/30 08:21:14;;;;;;;10.90;7.33;;;;;;;3.55;100.00;99466.63;5117034;28;20199;-72
2024/01/30 08:23:41;;;;;;;9.93;7.30;;;;;;;3.67;100.00;99473.38;5116585;28;20227;-72
2024/01/30 08:26:07;;;;;;;10.53;7.63;;;;;;;3.74;100.00;99465.75;5116916;28;20192;-72
2024/01/30 08:28:33;;;;;;;9.07;7.07;;;;;;;3.81;100.00;99467.69;5116304;28;20205;-72
2024/01/30 08:31:00;;;;;;;8.43;6.40;;;;;;;3.93;100.00;99473.63;5116341;28;20207;-72
2024/01/30 08:33:26;;;;;;;8.10;6.60;;;;;;;4.03;100.00;99474.41;5116403;28;20712;-72
2024/01/30 08:35:52;;;;;;;8.87;6.30;;;;;;;4.12;100.00;99473.53;5116293;28;20573;-72
2024/01/30 08:38:19;;;;;;;8.47;6.60;;;;;;;4.17;100.00;99469.53;5115287;28;20211;-72
2024/01/30 08:40:45;;;;;;;8.60;6.57;;;;;;;4.27;100.00;99474.72;5116516;28;20203;-72
2024/01/30 08:43:12;;;;;;;7.33;5.93;;;;;;;4.30;100.00;99477.06;5116313;28;20229;-72
2024/01/30 08:45:38;;;;;;;7.43;6.50;;;;;;;4.37;100.00;99480.78;5116382;28;20200;-72
2024/01/30 08:48:05;;;;;;;9.07;7.03;;;;;;;4.47;100.00;99473.69;5116222;28;20249;-72
2024/01/30 08:50:31;;;;;;;10.07;7.10;;;;;;;4.57;100.00;99477.91;5115992;28;20562;-72
2024/01/30 08:52:58;;;;;;;10.07;6.77;;;;;;;4.56;100.00;99481.50;5116062;28;20230;-72
2024/01/30 08:55:24;;;;;;;8.03;6.30;;;;;;;4.52;100.00;99474.06;5116325;28;20226;-72
2024/01/30 08:57:51;;;;;;;8.40;6.53;;;;;;;4.57;100.00;99477.91;5115680;28;20199;-72
2024/01/30 09:00:18;;;;;;;9.40;6.60;;;;;;;4.59;100.00;99483.03;5115770;28;20205;-72
2024/01/30 09:02:45;;;;;;;11.13;6.60;;;;;;;4.62;100.00;99478.28;5115999;28;20227;-72
2024/01/30 09:05:11;;;;;;;9.40;6.53;;;;;;;4.63;100.00;99479.13;5116166;28;20206;-72
2024/01/30 09:07:38;;;;;;;7.83;6.30;;;;;;;4.70;100.00;99485.47;5115614;28;20215;-72
2024/01/30 09:10:05;;;;;;;9.03;6.87;;;;;;;4.71;100.00;99489.75;5115905;28;20293;-72
2024/01/30 09:12:31;;;;;;;8.20;6.87;;;;;;;4.80;100.00;99488.88;5115506;28;20306;-72
2024/01/30 09:14:57;;;;;;;10.80;7.10;;;;;;;4.77;100.00;99499.69;5115774;28;20203;-72
2024/01/30 09:17:24;;;;;;;8.13;6.83;;;;;;;4.79;100.00;99503.03;5115877;28;20564;-72
2024/01/30 09:19:50;;;;;;;8.67;6.80;;;;;;;4.90;100.00;99501.03;5115885;28;20202;-72
2024/01/30 09:22:16;;;;;;;7.30;6.23;;;;;;;4.85;100.00;99505.06;5115757;28;20230;-72
2024/01/30 09:24:43;;;;;;;9.87;6.93;;;;;;;4.88;100.00;99497.69;5115214;28;20211;-72
2024/01/30 09:27:09;;;;;;;8.87;6.23;;;;;;;5.01;100.00;99502.59;5115384;28;20227;-72
2024/01/30 09:29:36;;;;;;;9.17;6.73;;;;;;;5.23;100.00;99505.66;5115033;28;20207;-72
2024/01/30 09:32:03;;;;;;;12.20;6.63;;;;;;;5.34;100.00;99507.22;5115313;28;20260;-72
2024/01/30 09:34:29;;;;;;;9.27;6.43;;;;;;;5.45;100.00;99499.09;5115472;28;20199;-72
2024/01/30 09:36:55;;;;;;;12.70;6.93;;;;;;;5.47;100.00;99508.50;5115355;28;20197;-72
2024/01/30 09:39:22;;;;;;;10.87;7.13;;;;;;;5.51;100.00;99501.09;5115388;28;20209;-72
2024/01/30 09:42:02;;;;;;;8.90;7.00;;;;;;;5.67;100.00;99501.25;5115313;28;20203;-72
2024/01/30 09:44:30;;;;;;;10.50;7.00;;;;;;;5.71;100.00;99498.16;5115265;28;20199;-72
2024/01/30 09:46:58;;;;;;;9.70;7.03;;;;;;;5.81;100.00;99508.66;5114804;27;20223;-72
2024/01/30 09:49:25;;;;;;;8.67;6.87;;;;;;;5.93;100.00;99495.03;5114940;28;20253;-72
2024/01/30 09:51:52;;;;;;;8.70;6.50;;;;;;;5.93;100.00;99497.66;5114752;28;20210;-72
2024/01/30 09:54:20;;;;;;;10.77;7.47;;;;;;;6.01;100.00;99503.00;5114974;28;20242;-72
2024/01/30 09:56:48;;;;;;;8.27;6.27;;;;;;;6.19;100.00;99502.97;5115113;28;20221;-72
2024/01/30 09:59:15;;;;;;;9.77;6.83;;;;;;;6.22;100.00;99507.94;5115010;28;20218;-72
2024/01/30 10:01:43;;;;;;;11.87;6.87;;;;;;;6.32;100.00;99503.34;5114854;28;20567;-73
2024/01/30 10:04:10;;;;;;;11.23;7.53;;;;;;;6.43;100.00;99506.56;5114847;28;20227;-72
2024/01/30 10:06:36;;;;;;;10.47;7.67;;;;;;;6.50;100.00;99509.41;5114411;28;20208;-72
2024/01/30 10:09:04;;;;;;;13.07;7.67;;;;;;;6.63;100.00;99513.28;5113700;28;20682;-72
2024/01/30 10:11:31;;;;;;;9.07;7.13;;;;;;;6.73;100.00;99502.56;5114856;28;20258;-72
2024/01/30 10:13:57;;;;;;;12.77;7.47;;;;;;;6.84;100.00;99511.03;5114812;28;20226;-72
2024/01/30 10:16:23;;;;;;;8.80;6.90;;;;;;;6.96;100.00;99511.56;5114730;28;20210;-72
2024/01/30 10:18:50;;;;;;;11.50;7.10;;;;;;;6.94;100.00;99505.63;5114270;28;20704;-72
2024/01/30 10:21:17;;;;;;;8.97;7.00;;;;;;;6.96;100.00;99503.63;5114692;28;20565;-72
2024/01/30 10:23:45;;;;;;;8.57;6.40;;;;;;;7.09;100.00;99506.63;5114149;28;20727;-72
2024/01/30 10:26:11;;;;;;;11.53;6.63;;;;;;;7.22;100.00;99502.53;5114453;28;20192;-72
2024/01/30 10:28:38;;;;;;;12.00;7.40;;;;;;;7.16;100.00;99503.22;5113946;27;20592;-72
2024/01/30 10:31:04;;;;;;;10.20;6.77;;;;;;;7.15;100.00;99498.06;5113994;28;20693;-72
2024/01/30 10:33:31;;;;;;;8.23;6.47;;;;;;;7.19;100.00;99502.06;5114188;28;20226;-72
2024/01/30 10:36:03;;;;;;;10.70;6.83;;;;;;;7.17;100.00;99498.72;5114469;28;20207;-72
2024/01/30 10:38:30;;;;;;;12.37;6.73;;;;;;;7.23;100.00;99495.41;5114152;28;20184;-72
2024/01/30 10:40:58;;;;;;;10.37;6.53;;;;;;;7.26;100.00;99495.94;5114010;28;20205;-75
2024/01/30 10:43:46;;;;;;;9.83;6.80;;;;;;;7.32;100.00;99489.16;5113970;28;20625;-72
2024/01/30 10:46:21;;;;;;;10.73;7.53;;;;;;;7.50;100.00;99484.53;5113730;28;20680;-72
2024/01/30 10:48:59;;;;;;;9.93;6.97;;;;;;;7.52;100.00;99486.03;5114168;28;20223;-72
2024/01/30 10:51:27;;;;;;;12.07;6.67;;;;;;;7.53;100.00;99481.56;5113920;28;20582;-72
2024/01/30 10:53:54;;;;;;;10.17;6.63;;;;;;;7.56;100.00;99482.06;5114108;28;20219;-73
2024/01/30 10:56:24;;;;;;;9.57;6.97;;;;;;;7.73;100.00;99480.22;5114181;28;20210;-72
2024/01/30 10:58:58;;;;;;;11.07;7.00;;;;;;;7.61;100.00;99474.44;5114315;28;20736;-72
2024/01/30 11:01:28;;;;;;;9.77;7.23;;;;;;;7.65;100.00;99481.06;5113342;28;20190;-72
2024/01/30 11:03:56;;;;;;;12.30;6.67;;;;;;;7.77;100.00;99471.81;5113757;28;20223;-72
2024/01/30 11:06:24;;;;;;;9.43;7.17;;;;;;;7.83;100.00;99476.44;5113359;28;20211;-72
2024/01/30 11:09:08;;;;;;;12.57;7.23;;;;;;;7.86;100.00;99473.47;5113230;28;20697;-72
2024/01/30 11:11:52;;;;;;;8.53;6.53;;;;;;;7.99;100.00;99470.28;5113842;28;20584;-73
2024/01/30 11:14:26;;;;;;;12.57;6.77;;;;;;;8.07;100.00;99473.75;5113531;28;20197;-72
2024/01/30 11:16:52;;;;;;;9.60;6.50;;;;;;;8.19;100.00;99480.34;5113584;28;20292;-73
2024/01/30 11:19:28;;;;;;;12.63;7.30;;;;;;;8.40;100.00;99478.00;5113266;28;20238;-73
2024/01/30 11:21:56;;;;;;;11.17;6.87;;;;;;;8.64;100.00;99477.09;5112950;28;20595;-73
2024/01/30 11:24:26;;;;;;;12.13;7.50;;;;;;;8.45;100.00;99475.66;5113166;28;20249;-75
2024/01/30 11:27:00;;;;;;;11.77;7.23;;;;;;;8.37;100.00;99475.69;5113605;28;20207;-75